createdAt,value
2018-08-12T00:00:00.968Z,0.00
2018-08-12T00:01:00.901Z,0.00
2018-08-12T00:02:00.802Z,0.00
2018-08-12T00:03:00.727Z,0.00
2018-08-12T00:04:00.638Z,0.00
2018-08-12T00:05:00.567Z,0.00
2018-08-12T00:06:00.476Z,0.00
2018-08-12T00:07:00.402Z,0.00
2018-08-12T00:08:00.314Z,0.00
2018-08-12T00:09:00.238Z,0.00
2018-08-12T00:10:00.164Z,0.00
2018-08-12T00:11:00.077Z,0.00
2018-08-12T00:12:00.002Z,0.00
2018-08-12T00:12:59.914Z,0.00
2018-08-12T00:13:59.852Z,0.00
2018-08-12T00:14:59.752Z,0.00
2018-08-12T00:15:59.684Z,0.00
2018-08-12T00:16:59.590Z,0.00
2018-08-12T00:17:59.516Z,0.00
2018-08-12T00:18:59.441Z,0.00
2018-08-12T00:19:59.353Z,0.00
2018-08-12T00:20:59.278Z,0.00
2018-08-12T00:21:59.190Z,0.00
2018-08-12T00:22:59.117Z,0.00
2018-08-12T00:23:59.029Z,0.00
2018-08-12T00:24:58.954Z,0.00
2018-08-12T00:25:58.869Z,0.00
2018-08-12T00:26:58.790Z,0.00
2018-08-12T00:27:58.708Z,0.00
2018-08-12T00:28:58.628Z,0.00
2018-08-12T00:29:58.554Z,0.00
2018-08-12T00:30:58.480Z,0.00
2018-08-12T00:31:58.391Z,0.00
2018-08-12T00:32:58.304Z,0.00
2018-08-12T00:33:58.229Z,0.00
2018-08-12T00:34:58.141Z,0.00
2018-08-12T00:35:58.067Z,0.00
2018-08-12T00:36:57.982Z,0.00
2018-08-12T00:37:57.905Z,0.00
2018-08-12T00:38:57.817Z,0.00
2018-08-12T00:39:57.741Z,0.00
2018-08-12T00:40:57.656Z,0.00
2018-08-12T00:41:57.583Z,0.00
2018-08-12T00:42:57.507Z,0.00
2018-08-12T00:43:57.430Z,0.00
2018-08-12T00:44:57.342Z,0.00
2018-08-12T00:45:57.261Z,0.00
2018-08-12T00:46:57.180Z,0.00
2018-08-12T00:47:57.092Z,0.00
2018-08-12T00:48:57.020Z,0.00
2018-08-12T00:49:56.930Z,0.00
2018-08-12T00:50:56.860Z,0.00
2018-08-12T00:51:56.768Z,0.00
2018-08-12T00:52:56.696Z,0.00
2018-08-12T00:53:56.607Z,0.00
2018-08-12T00:54:56.531Z,0.00
2018-08-12T00:55:56.445Z,0.00
2018-08-12T00:56:56.369Z,0.00
2018-08-12T00:57:56.293Z,0.00
2018-08-12T00:58:56.207Z,0.00
2018-08-12T00:59:56.132Z,0.00
2018-08-12T01:00:56.044Z,0.00
2018-08-12T01:01:55.969Z,0.00
2018-08-12T01:02:55.882Z,0.00
2018-08-12T01:03:55.808Z,0.00
2018-08-12T01:04:55.733Z,0.00
2018-08-12T01:05:55.644Z,0.00
2018-08-12T01:06:55.561Z,0.00
2018-08-12T01:07:55.483Z,0.00
2018-08-12T01:08:55.394Z,0.00
2018-08-12T01:09:55.333Z,0.00
2018-08-12T01:10:55.234Z,0.00
2018-08-12T01:11:55.161Z,0.00
2018-08-12T01:12:55.074Z,0.00
2018-08-12T01:13:54.995Z,0.00
2018-08-12T01:14:54.933Z,0.00
2018-08-12T01:15:54.835Z,0.00
2018-08-12T01:16:54.769Z,0.00
2018-08-12T01:17:54.673Z,0.00
2018-08-12T01:18:54.596Z,0.00
2018-08-12T01:19:54.511Z,0.00
2018-08-12T01:20:54.435Z,0.00
2018-08-12T01:21:54.346Z,0.00
2018-08-12T01:22:54.272Z,0.00
2018-08-12T01:23:54.185Z,0.00
2018-08-12T01:24:54.111Z,0.00
2018-08-12T01:25:54.024Z,0.00
2018-08-12T01:26:53.947Z,0.00
2018-08-12T01:27:53.861Z,0.00
2018-08-12T01:28:53.785Z,0.00
2018-08-12T01:29:53.697Z,0.00
2018-08-12T01:30:53.636Z,0.00
2018-08-12T01:31:53.536Z,0.00
2018-08-12T01:32:53.464Z,0.00
2018-08-12T01:33:53.373Z,0.00
2018-08-12T01:34:53.298Z,0.00
2018-08-12T01:35:53.222Z,0.00
2018-08-12T01:36:53.137Z,0.00
2018-08-12T01:37:53.050Z,0.00
2018-08-12T01:38:52.974Z,0.00
2018-08-12T01:39:52.898Z,0.00
2018-08-12T01:40:52.812Z,0.00
2018-08-12T01:41:52.741Z,0.00
2018-08-12T01:42:52.665Z,0.00
2018-08-12T01:43:52.574Z,0.00
2018-08-12T01:44:52.487Z,0.00
2018-08-12T01:45:52.413Z,0.00
2018-08-12T01:46:52.324Z,0.00
2018-08-12T01:47:52.250Z,0.00
2018-08-12T01:48:52.163Z,0.00
2018-08-12T01:49:52.088Z,0.00
2018-08-12T01:50:51.999Z,0.00
2018-08-12T01:51:51.924Z,0.00
2018-08-12T01:52:51.839Z,0.00
2018-08-12T01:53:51.763Z,0.00
2018-08-12T01:54:51.675Z,0.00
2018-08-12T01:55:51.600Z,0.00
2018-08-12T01:56:51.514Z,0.00
2018-08-12T01:57:51.438Z,0.00
2018-08-12T01:58:51.351Z,0.00
2018-08-12T01:59:51.276Z,0.00
2018-08-12T02:00:51.191Z,0.00
2018-08-12T02:01:51.114Z,0.00
2018-08-12T02:02:51.026Z,0.00
2018-08-12T02:03:50.951Z,0.00
2018-08-12T02:04:50.864Z,0.00
2018-08-12T02:05:50.791Z,0.00
2018-08-12T02:06:50.715Z,0.00
2018-08-12T02:07:50.626Z,0.00
2018-08-12T02:08:50.543Z,0.00
2018-08-12T02:09:50.466Z,0.00
2018-08-12T02:10:50.377Z,0.00
2018-08-12T02:11:50.302Z,0.00
2018-08-12T02:12:50.216Z,0.00
2018-08-12T02:13:50.141Z,0.00
2018-08-12T02:14:50.053Z,0.00
2018-08-12T02:15:49.979Z,0.00
2018-08-12T02:16:49.891Z,0.00
2018-08-12T02:17:49.816Z,0.00
2018-08-12T02:18:49.741Z,0.00
2018-08-12T02:19:49.654Z,0.00
2018-08-12T02:20:49.567Z,0.00
2018-08-12T02:21:49.491Z,0.00
2018-08-12T02:22:49.406Z,0.00
2018-08-12T02:23:49.342Z,0.00
2018-08-12T02:24:49.243Z,0.00
2018-08-12T02:25:49.170Z,0.00
2018-08-12T02:26:49.079Z,0.00
2018-08-12T02:27:49.004Z,0.00
2018-08-12T02:28:48.918Z,0.00
2018-08-12T02:29:48.865Z,0.00
2018-08-12T02:30:48.754Z,0.00
2018-08-12T02:31:48.681Z,0.00
2018-08-12T02:32:48.593Z,0.00
2018-08-12T02:33:48.518Z,0.00
2018-08-12T02:34:48.434Z,0.00
2018-08-12T02:35:48.355Z,0.00
2018-08-12T02:36:48.269Z,0.00
2018-08-12T02:37:48.194Z,0.00
2018-08-12T02:38:48.106Z,0.00
2018-08-12T02:39:48.031Z,0.00
2018-08-12T02:40:47.944Z,0.00
2018-08-12T02:41:47.875Z,0.00
2018-08-12T02:42:47.794Z,0.00
2018-08-12T02:43:47.713Z,0.00
2018-08-12T02:44:47.621Z,0.00
2018-08-12T02:45:47.544Z,0.00
2018-08-12T02:46:47.456Z,0.00
2018-08-12T02:47:47.383Z,0.00
2018-08-12T02:48:47.294Z,0.00
2018-08-12T02:49:47.208Z,0.00
2018-08-12T02:50:47.132Z,0.00
2018-08-12T02:51:47.045Z,0.00
2018-08-12T02:52:46.971Z,0.00
2018-08-12T02:53:46.883Z,0.00
2018-08-12T02:54:46.807Z,0.00
2018-08-12T02:55:46.725Z,0.00
2018-08-12T02:56:46.647Z,0.00
2018-08-12T02:57:46.557Z,0.00
2018-08-12T02:58:46.483Z,0.00
2018-08-12T02:59:46.396Z,0.00
2018-08-12T03:00:46.325Z,0.00
2018-08-12T03:01:46.233Z,0.00
2018-08-12T03:02:46.158Z,0.00
2018-08-12T03:03:46.071Z,0.00
2018-08-12T03:04:45.996Z,0.00
2018-08-12T03:05:45.934Z,0.00
2018-08-12T03:06:45.833Z,0.00
2018-08-12T03:07:45.747Z,0.00
2018-08-12T03:08:45.660Z,0.00
2018-08-12T03:09:45.584Z,0.00
2018-08-12T03:10:45.497Z,0.00
2018-08-12T03:11:45.427Z,0.00
2018-08-12T03:12:45.334Z,0.00
2018-08-12T03:13:45.259Z,0.00
2018-08-12T03:14:45.173Z,0.00
2018-08-12T03:15:45.098Z,0.00
2018-08-12T03:16:45.011Z,0.00
2018-08-12T03:17:44.939Z,0.00
2018-08-12T03:18:44.851Z,0.00
2018-08-12T03:19:44.773Z,0.00
2018-08-12T03:20:44.685Z,0.00
2018-08-12T03:21:44.623Z,0.00
2018-08-12T03:22:44.523Z,0.00
2018-08-12T03:23:44.441Z,0.00
2018-08-12T03:24:44.360Z,0.00
2018-08-12T03:25:44.276Z,0.00
2018-08-12T03:26:44.209Z,0.00
2018-08-12T03:27:44.112Z,0.00
2018-08-12T03:28:44.040Z,0.00
2018-08-12T03:29:43.949Z,0.00
2018-08-12T03:30:43.874Z,0.00
2018-08-12T03:31:43.802Z,0.00
2018-08-12T03:32:43.712Z,0.00
2018-08-12T03:33:43.625Z,0.00
2018-08-12T03:34:43.538Z,0.00
2018-08-12T03:35:43.475Z,0.00
2018-08-12T03:36:43.375Z,0.00
2018-08-12T03:37:43.303Z,0.00
2018-08-12T03:38:43.212Z,5.63
2018-08-12T03:39:43.140Z,5.63
2018-08-12T03:40:43.051Z,5.63
2018-08-12T03:41:42.976Z,5.63
2018-08-12T03:42:42.888Z,5.63
2018-08-12T03:43:42.801Z,5.63
2018-08-12T03:44:42.730Z,5.63
2018-08-12T03:45:42.638Z,5.63
2018-08-12T03:46:42.562Z,5.63
2018-08-12T03:47:42.476Z,5.63
2018-08-12T03:48:42.401Z,5.63
2018-08-12T03:49:42.314Z,11.25
2018-08-12T03:50:42.238Z,11.25
2018-08-12T03:51:42.154Z,11.25
2018-08-12T03:52:42.069Z,11.25
2018-08-12T03:53:42.002Z,11.25
2018-08-12T03:54:41.902Z,11.25
2018-08-12T03:55:41.827Z,16.88
2018-08-12T03:56:41.739Z,16.88
2018-08-12T03:57:41.664Z,16.88
2018-08-12T03:58:41.578Z,16.88
2018-08-12T03:59:41.503Z,16.88
2018-08-12T04:00:41.415Z,22.50
2018-08-12T04:01:41.340Z,22.50
2018-08-12T04:02:41.254Z,22.50
2018-08-12T04:03:41.165Z,28.13
2018-08-12T04:04:41.091Z,28.13
2018-08-12T04:05:41.005Z,28.13
2018-08-12T04:06:40.929Z,28.13
2018-08-12T04:07:40.854Z,28.13
2018-08-12T04:08:40.765Z,28.13
2018-08-12T04:09:40.682Z,28.13
2018-08-12T04:10:40.604Z,28.13
2018-08-12T04:11:40.516Z,28.13
2018-08-12T04:12:40.429Z,28.13
2018-08-12T04:13:40.354Z,28.13
2018-08-12T04:14:40.268Z,33.75
2018-08-12T04:15:40.192Z,33.75
2018-08-12T04:16:40.105Z,33.75
2018-08-12T04:17:40.031Z,39.38
2018-08-12T04:18:39.942Z,39.38
2018-08-12T04:19:39.867Z,39.38
2018-08-12T04:20:39.780Z,45.00
2018-08-12T04:21:39.694Z,45.00
2018-08-12T04:22:39.617Z,45.00
2018-08-12T04:23:39.542Z,50.63
2018-08-12T04:24:39.456Z,50.63
2018-08-12T04:25:39.381Z,50.63
2018-08-12T04:26:39.294Z,50.63
2018-08-12T04:27:39.206Z,50.63
2018-08-12T04:28:39.132Z,50.63
2018-08-12T04:29:39.043Z,50.63
2018-08-12T04:30:38.981Z,50.63
2018-08-12T04:31:38.882Z,50.63
2018-08-12T04:32:38.794Z,56.25
2018-08-12T04:33:38.718Z,56.25
2018-08-12T04:34:38.645Z,56.25
2018-08-12T04:35:38.556Z,56.25
2018-08-12T04:36:38.481Z,56.25
2018-08-12T04:37:38.393Z,56.25
2018-08-12T04:38:38.307Z,56.25
2018-08-12T04:39:38.232Z,56.25
2018-08-12T04:40:38.144Z,61.88
2018-08-12T04:41:38.081Z,61.88
2018-08-12T04:42:37.982Z,61.88
2018-08-12T04:43:37.895Z,61.88
2018-08-12T04:44:37.819Z,61.88
2018-08-12T04:45:37.732Z,61.88
2018-08-12T04:46:37.658Z,61.88
2018-08-12T04:47:37.570Z,61.88
2018-08-12T04:48:37.495Z,67.50
2018-08-12T04:49:37.408Z,67.50
2018-08-12T04:50:37.334Z,67.50
2018-08-12T04:51:37.245Z,67.50
2018-08-12T04:52:37.170Z,67.50
2018-08-12T04:53:37.085Z,67.50
2018-08-12T04:54:37.009Z,67.50
2018-08-12T04:55:36.920Z,73.13
2018-08-12T04:56:36.845Z,73.13
2018-08-12T04:57:36.761Z,73.13
2018-08-12T04:58:36.684Z,67.50
2018-08-12T04:59:36.596Z,67.50
2018-08-12T05:00:36.534Z,67.50
2018-08-12T05:01:36.435Z,67.50
2018-08-12T05:02:36.361Z,73.13
2018-08-12T05:03:36.271Z,73.13
2018-08-12T05:04:36.185Z,73.13
2018-08-12T05:05:36.110Z,73.13
2018-08-12T05:06:36.024Z,73.13
2018-08-12T05:07:35.947Z,73.13
2018-08-12T05:08:35.860Z,73.13
2018-08-12T05:09:35.785Z,73.13
2018-08-12T05:10:35.699Z,73.13
2018-08-12T05:11:35.623Z,78.75
2018-08-12T05:12:35.536Z,78.75
2018-08-12T05:13:35.461Z,78.75
2018-08-12T05:14:35.373Z,78.75
2018-08-12T05:15:35.297Z,78.75
2018-08-12T05:16:35.214Z,78.75
2018-08-12T05:17:35.136Z,84.38
2018-08-12T05:18:35.049Z,84.38
2018-08-12T05:19:34.973Z,84.38
2018-08-12T05:20:34.885Z,84.38
2018-08-12T05:21:34.812Z,84.38
2018-08-12T05:22:34.723Z,90.00
2018-08-12T05:23:34.649Z,90.00
2018-08-12T05:24:34.562Z,90.00
2018-08-12T05:25:34.488Z,95.63
2018-08-12T05:26:34.398Z,95.63
2018-08-12T05:27:34.324Z,95.63
2018-08-12T05:28:34.238Z,101.25
2018-08-12T05:29:34.162Z,101.25
2018-08-12T05:30:34.074Z,101.25
2018-08-12T05:31:34.000Z,106.88
2018-08-12T05:32:33.924Z,106.88
2018-08-12T05:33:33.838Z,106.88
2018-08-12T05:34:33.757Z,106.88
2018-08-12T05:35:33.674Z,106.88
2018-08-12T05:36:33.589Z,106.88
2018-08-12T05:37:33.525Z,106.88
2018-08-12T05:38:33.438Z,106.88
2018-08-12T05:39:33.350Z,106.88
2018-08-12T05:40:33.277Z,106.88
2018-08-12T05:41:33.188Z,106.88
2018-08-12T05:42:33.114Z,106.88
2018-08-12T05:43:33.026Z,106.88
2018-08-12T05:44:32.951Z,106.88
2018-08-12T05:45:32.863Z,106.88
2018-08-12T05:46:32.789Z,106.88
2018-08-12T05:47:32.715Z,106.88
2018-08-12T05:48:32.626Z,106.88
2018-08-12T05:49:32.543Z,112.50
2018-08-12T05:50:32.464Z,112.50
2018-08-12T05:51:32.453Z,118.13
2018-08-12T05:52:32.315Z,118.13
2018-08-12T05:53:32.226Z,112.50
2018-08-12T05:54:32.144Z,112.50
2018-08-12T05:55:32.064Z,112.50
2018-08-12T05:56:31.980Z,112.50
2018-08-12T05:57:31.912Z,112.50
2018-08-12T05:58:31.815Z,118.13
2018-08-12T05:59:31.740Z,118.13
2018-08-12T06:00:31.656Z,123.75
2018-08-12T06:01:31.578Z,129.38
2018-08-12T06:02:31.503Z,129.38
2018-08-12T06:03:31.417Z,135.00
2018-08-12T06:04:31.341Z,140.63
2018-08-12T06:05:31.254Z,140.63
2018-08-12T06:06:31.178Z,140.63
2018-08-12T06:07:31.092Z,140.63
2018-08-12T06:08:31.016Z,146.25
2018-08-12T06:09:30.942Z,146.25
2018-08-12T06:10:30.854Z,146.25
2018-08-12T06:11:30.784Z,140.63
2018-08-12T06:12:30.703Z,146.25
2018-08-12T06:13:30.619Z,140.63
2018-08-12T06:14:30.531Z,135.00
2018-08-12T06:15:30.458Z,135.00
2018-08-12T06:16:30.368Z,129.38
2018-08-12T06:17:30.323Z,129.38
2018-08-12T06:18:30.218Z,135.00
2018-08-12T06:19:30.129Z,135.00
2018-08-12T06:20:30.056Z,140.63
2018-08-12T06:21:29.969Z,140.63
2018-08-12T06:22:29.893Z,146.25
2018-08-12T06:23:29.807Z,140.63
2018-08-12T06:24:29.730Z,146.25
2018-08-12T06:25:29.655Z,140.63
2018-08-12T06:26:29.569Z,146.25
2018-08-12T06:27:29.494Z,146.25
2018-08-12T06:28:29.421Z,146.25
2018-08-12T06:29:29.332Z,151.88
2018-08-12T06:30:29.257Z,151.88
2018-08-12T06:31:29.202Z,151.88
2018-08-12T06:32:29.094Z,151.88
2018-08-12T06:33:29.071Z,157.50
2018-08-12T06:34:29.010Z,163.13
2018-08-12T06:35:28.857Z,163.13
2018-08-12T06:36:28.770Z,168.75
2018-08-12T06:37:28.695Z,168.75
2018-08-12T06:38:28.620Z,168.75
2018-08-12T06:39:28.532Z,174.38
2018-08-12T06:40:28.461Z,168.75
2018-08-12T06:41:28.383Z,168.75
2018-08-12T06:42:28.296Z,168.75
2018-08-12T06:43:28.224Z,168.75
2018-08-12T06:44:28.133Z,168.75
2018-08-12T06:45:28.058Z,168.75
2018-08-12T06:46:28.021Z,163.13
2018-08-12T06:47:27.896Z,163.13
2018-08-12T06:48:27.821Z,163.13
2018-08-12T06:49:27.747Z,163.13
2018-08-12T06:50:27.658Z,180.00
2018-08-12T06:51:27.583Z,191.25
2018-08-12T06:52:27.498Z,191.25
2018-08-12T06:53:27.422Z,174.38
2018-08-12T06:54:27.348Z,168.75
2018-08-12T06:55:27.259Z,163.13
2018-08-12T06:56:27.184Z,157.50
2018-08-12T06:57:27.110Z,157.50
2018-08-12T06:58:27.023Z,163.13
2018-08-12T06:59:26.948Z,168.75
2018-08-12T07:00:26.889Z,174.38
2018-08-12T07:01:26.785Z,174.38
2018-08-12T07:02:26.710Z,180.00
2018-08-12T07:03:26.635Z,180.00
2018-08-12T07:04:26.548Z,185.63
2018-08-12T07:05:26.473Z,191.25
2018-08-12T07:06:26.400Z,191.25
2018-08-12T07:07:26.311Z,185.63
2018-08-12T07:08:26.237Z,185.63
2018-08-12T07:09:26.160Z,185.63
2018-08-12T07:10:26.074Z,180.00
2018-08-12T07:11:25.998Z,174.38
2018-08-12T07:12:25.923Z,185.63
2018-08-12T07:13:25.849Z,185.63
2018-08-12T07:14:25.798Z,191.25
2018-08-12T07:15:25.699Z,191.25
2018-08-12T07:16:25.612Z,196.88
2018-08-12T07:17:25.524Z,202.50
2018-08-12T07:18:25.450Z,202.50
2018-08-12T07:19:25.374Z,202.50
2018-08-12T07:20:25.303Z,208.13
2018-08-12T07:21:25.217Z,219.38
2018-08-12T07:22:25.142Z,213.75
2018-08-12T07:23:25.050Z,219.38
2018-08-12T07:24:24.975Z,219.38
2018-08-12T07:25:24.901Z,219.38
2018-08-12T07:26:24.814Z,225.00
2018-08-12T07:27:24.737Z,225.00
2018-08-12T07:28:24.676Z,230.63
2018-08-12T07:29:24.587Z,236.25
2018-08-12T07:30:24.502Z,236.25
2018-08-12T07:31:24.427Z,247.50
2018-08-12T07:32:24.352Z,253.13
2018-08-12T07:33:24.264Z,241.88
2018-08-12T07:34:24.191Z,247.50
2018-08-12T07:35:24.115Z,275.63
2018-08-12T07:36:24.038Z,315.00
2018-08-12T07:37:23.952Z,343.13
2018-08-12T07:38:23.876Z,360.00
2018-08-12T07:39:23.805Z,371.25
2018-08-12T07:40:23.727Z,365.63
2018-08-12T07:41:23.653Z,376.88
2018-08-12T07:42:23.564Z,388.13
2018-08-12T07:43:23.494Z,399.38
2018-08-12T07:44:23.444Z,399.38
2018-08-12T07:45:23.339Z,410.63
2018-08-12T07:46:23.265Z,410.63
2018-08-12T07:47:23.178Z,427.50
2018-08-12T07:48:23.102Z,427.50
2018-08-12T07:49:23.028Z,433.13
2018-08-12T07:50:22.954Z,438.75
2018-08-12T07:51:22.878Z,444.38
2018-08-12T07:52:22.803Z,444.38
2018-08-12T07:53:22.729Z,450.00
2018-08-12T07:54:22.656Z,450.00
2018-08-12T07:55:22.578Z,444.38
2018-08-12T07:56:22.504Z,450.00
2018-08-12T07:57:22.432Z,450.00
2018-08-12T07:58:22.354Z,450.00
2018-08-12T07:59:22.279Z,438.75
2018-08-12T08:00:22.204Z,444.38
2018-08-12T08:01:22.129Z,433.13
2018-08-12T08:02:22.055Z,444.38
2018-08-12T08:03:21.979Z,450.00
2018-08-12T08:04:21.905Z,461.25
2018-08-12T08:05:21.841Z,466.88
2018-08-12T08:06:21.818Z,466.88
2018-08-12T08:07:21.691Z,472.50
2018-08-12T08:08:21.631Z,478.13
2018-08-12T08:09:21.545Z,478.13
2018-08-12T08:10:21.467Z,478.13
2018-08-12T08:11:21.393Z,478.13
2018-08-12T08:12:21.333Z,489.38
2018-08-12T08:13:21.257Z,500.63
2018-08-12T08:14:21.182Z,495.00
2018-08-12T08:15:21.107Z,500.63
2018-08-12T08:16:21.031Z,506.25
2018-08-12T08:17:20.961Z,500.63
2018-08-12T08:18:20.892Z,500.63
2018-08-12T08:19:20.820Z,500.63
2018-08-12T08:20:20.748Z,506.25
2018-08-12T08:21:20.668Z,489.38
2018-08-12T08:22:20.607Z,489.38
2018-08-12T08:23:20.532Z,489.38
2018-08-12T08:24:20.461Z,489.38
2018-08-12T08:25:20.405Z,495.00
2018-08-12T08:26:20.326Z,500.63
2018-08-12T08:27:20.246Z,500.63
2018-08-12T08:28:20.174Z,506.25
2018-08-12T08:29:20.096Z,523.13
2018-08-12T08:30:20.032Z,517.50
2018-08-12T08:31:19.979Z,528.75
2018-08-12T08:32:19.966Z,528.75
2018-08-12T08:33:19.821Z,511.88
2018-08-12T08:34:19.745Z,500.63
2018-08-12T08:35:19.671Z,500.63
2018-08-12T08:36:19.608Z,534.38
2018-08-12T08:37:19.533Z,579.38
2018-08-12T08:38:19.471Z,562.50
2018-08-12T08:39:19.408Z,556.88
2018-08-12T08:40:19.320Z,540.00
2018-08-12T08:41:19.259Z,517.50
2018-08-12T08:42:19.184Z,528.75
2018-08-12T08:43:19.121Z,506.25
2018-08-12T08:44:19.049Z,506.25
2018-08-12T08:45:18.971Z,478.13
2018-08-12T08:46:18.910Z,489.38
2018-08-12T08:47:18.836Z,478.13
2018-08-12T08:48:18.772Z,444.38
2018-08-12T08:49:18.700Z,416.25
2018-08-12T08:50:18.635Z,393.75
2018-08-12T08:51:18.559Z,433.13
2018-08-12T08:52:18.486Z,461.25
2018-08-12T08:53:18.421Z,511.88
2018-08-12T08:54:18.348Z,534.38
2018-08-12T08:55:18.290Z,523.13
2018-08-12T08:56:18.210Z,528.75
2018-08-12T08:57:18.147Z,534.38
2018-08-12T08:58:18.072Z,534.38
2018-08-12T08:59:18.011Z,523.13
2018-08-12T09:00:17.936Z,517.50
2018-08-12T09:01:17.902Z,511.88
2018-08-12T09:02:17.799Z,489.38
2018-08-12T09:03:17.736Z,478.13
2018-08-12T09:04:17.661Z,489.38
2018-08-12T09:05:17.598Z,511.88
2018-08-12T09:06:17.526Z,528.75
2018-08-12T09:07:17.465Z,534.38
2018-08-12T09:08:17.496Z,540.00
2018-08-12T09:09:17.540Z,540.00
2018-08-12T09:10:17.248Z,534.38
2018-08-12T09:11:17.192Z,466.88
2018-08-12T09:12:17.115Z,483.75
2018-08-12T09:13:17.049Z,506.25
2018-08-12T09:14:16.976Z,534.38
2018-08-12T09:15:16.913Z,534.38
2018-08-12T09:16:16.837Z,523.13
2018-08-12T09:17:16.777Z,534.38
2018-08-12T09:18:16.789Z,534.38
2018-08-12T09:19:16.638Z,534.38
2018-08-12T09:20:16.564Z,528.75
2018-08-12T09:21:16.500Z,556.88
2018-08-12T09:22:16.428Z,568.13
2018-08-12T09:23:16.363Z,568.13
2018-08-12T09:24:16.314Z,568.13
2018-08-12T09:25:16.225Z,556.88
2018-08-12T09:26:16.164Z,556.88
2018-08-12T09:27:16.089Z,568.13
2018-08-12T09:28:16.028Z,585.00
2018-08-12T09:29:15.951Z,545.63
2018-08-12T09:30:15.893Z,590.63
2018-08-12T09:31:15.816Z,562.50
2018-08-12T09:32:15.754Z,506.25
2018-08-12T09:33:15.677Z,551.25
2018-08-12T09:34:15.615Z,495.00
2018-08-12T09:35:15.552Z,450.00
2018-08-12T09:36:15.477Z,421.88
2018-08-12T09:37:15.415Z,438.75
2018-08-12T09:38:15.344Z,354.38
2018-08-12T09:39:15.277Z,376.88
2018-08-12T09:40:15.202Z,360.00
2018-08-12T09:41:15.140Z,360.00
2018-08-12T09:42:15.065Z,348.75
2018-08-12T09:43:15.002Z,337.50
2018-08-12T09:44:14.928Z,405.00
2018-08-12T09:45:14.853Z,421.88
2018-08-12T09:46:14.791Z,489.38
2018-08-12T09:47:14.716Z,489.38
2018-08-12T09:48:14.653Z,489.38
2018-08-12T09:49:14.578Z,455.63
2018-08-12T09:50:14.503Z,376.88
2018-08-12T09:51:14.448Z,388.13
2018-08-12T09:52:14.367Z,416.25
2018-08-12T09:53:14.292Z,540.00
2018-08-12T09:54:14.228Z,579.38
2018-08-12T09:55:14.153Z,765.00
2018-08-12T09:56:14.079Z,579.38
2018-08-12T09:57:14.017Z,450.00
2018-08-12T09:58:13.943Z,371.25
2018-08-12T09:59:13.868Z,365.63
2018-08-12T10:00:13.833Z,405.00
2018-08-12T10:01:13.730Z,382.50
2018-08-12T10:02:13.654Z,365.63
2018-08-12T10:03:13.579Z,376.88
2018-08-12T10:04:13.505Z,388.13
2018-08-12T10:05:13.444Z,444.38
2018-08-12T10:06:13.367Z,444.38
2018-08-12T10:07:13.295Z,466.88
2018-08-12T10:08:13.219Z,506.25
2018-08-12T10:09:13.155Z,568.13
2018-08-12T10:10:13.084Z,585.00
2018-08-12T10:11:13.005Z,585.00
2018-08-12T10:12:13.179Z,562.50
2018-08-12T10:13:12.857Z,540.00
2018-08-12T10:14:12.782Z,517.50
2018-08-12T10:15:12.719Z,466.88
2018-08-12T10:16:12.644Z,472.50
2018-08-12T10:17:12.569Z,466.88
2018-08-12T10:18:12.499Z,489.38
2018-08-12T10:19:12.419Z,523.13
2018-08-12T10:20:12.356Z,523.13
2018-08-12T10:21:12.281Z,500.63
2018-08-12T10:22:12.207Z,455.63
2018-08-12T10:23:12.132Z,416.25
2018-08-12T10:24:12.057Z,410.63
2018-08-12T10:25:11.995Z,455.63
2018-08-12T10:26:11.921Z,483.75
2018-08-12T10:27:11.846Z,506.25
2018-08-12T10:28:11.776Z,523.13
2018-08-12T10:29:11.709Z,478.13
2018-08-12T10:30:11.622Z,438.75
2018-08-12T10:31:11.559Z,444.38
2018-08-12T10:32:11.496Z,427.50
2018-08-12T10:33:11.408Z,444.38
2018-08-12T10:34:11.336Z,466.88
2018-08-12T10:35:11.258Z,483.75
2018-08-12T10:36:11.184Z,596.25
2018-08-12T10:37:11.123Z,573.75
2018-08-12T10:38:11.048Z,624.38
2018-08-12T10:39:10.974Z,585.00
2018-08-12T10:40:10.898Z,635.63
2018-08-12T10:41:10.823Z,675.00
2018-08-12T10:42:10.751Z,720.00
2018-08-12T10:43:10.687Z,720.00
2018-08-12T10:44:10.623Z,697.50
2018-08-12T10:45:10.549Z,658.13
2018-08-12T10:46:10.460Z,669.38
2018-08-12T10:47:10.385Z,652.50
2018-08-12T10:48:10.310Z,641.25
2018-08-12T10:49:10.249Z,669.38
2018-08-12T10:50:10.173Z,675.00
2018-08-12T10:51:10.145Z,1496.25
2018-08-12T10:52:10.024Z,916.88
2018-08-12T10:53:09.948Z,877.50
2018-08-12T10:54:09.886Z,1265.63
2018-08-12T10:55:09.810Z,956.25
2018-08-12T10:56:09.736Z,916.88
2018-08-12T10:57:09.661Z,826.88
2018-08-12T10:58:09.599Z,894.38
2018-08-12T10:59:09.525Z,1428.75
2018-08-12T11:00:09.449Z,1710.00
2018-08-12T11:01:09.379Z,1777.50
2018-08-12T11:02:09.312Z,2047.50
2018-08-12T11:03:09.236Z,2070.00
2018-08-12T11:04:09.162Z,1985.63
2018-08-12T11:05:09.102Z,1980.00
2018-08-12T11:06:09.025Z,1811.25
2018-08-12T11:07:09.011Z,1653.75
2018-08-12T11:08:08.887Z,1749.38
2018-08-12T11:09:08.826Z,1940.63
2018-08-12T11:10:08.751Z,1996.88
2018-08-12T11:11:08.687Z,1996.88
2018-08-12T11:12:08.612Z,2025.00
2018-08-12T11:13:08.551Z,1963.13
2018-08-12T11:14:08.491Z,1777.50
2018-08-12T11:15:08.413Z,1749.38
2018-08-12T11:16:08.351Z,815.63
2018-08-12T11:17:08.276Z,1760.63
2018-08-12T11:18:08.213Z,2047.50
2018-08-12T11:19:08.152Z,2182.50
2018-08-12T11:20:08.090Z,2182.50
2018-08-12T11:21:08.015Z,2255.63
2018-08-12T11:22:07.953Z,2250.00
2018-08-12T11:23:07.890Z,2261.25
2018-08-12T11:24:07.814Z,3515.63
2018-08-12T11:25:07.777Z,4016.25
2018-08-12T11:26:07.690Z,3577.50
2018-08-12T11:27:07.629Z,3442.50
2018-08-12T11:28:07.566Z,3397.50
2018-08-12T11:29:07.502Z,3521.25
2018-08-12T11:30:07.428Z,3690.00
2018-08-12T11:31:07.366Z,3577.50
2018-08-12T11:32:07.302Z,3420.00
2018-08-12T11:33:07.229Z,3116.25
2018-08-12T11:34:07.164Z,3521.25
2018-08-12T11:35:07.104Z,3543.75
2018-08-12T11:36:07.044Z,3150.00
2018-08-12T11:37:06.979Z,2064.38
2018-08-12T11:38:06.904Z,2846.25
2018-08-12T11:39:06.841Z,3864.38
2018-08-12T11:40:06.779Z,3768.75
2018-08-12T11:41:06.765Z,3780.00
2018-08-12T11:42:06.654Z,3763.13
2018-08-12T11:43:06.579Z,3690.00
2018-08-12T11:44:06.519Z,3673.13
2018-08-12T11:45:06.454Z,3796.88
2018-08-12T11:46:06.405Z,3729.38
2018-08-12T11:47:06.330Z,3639.38
2018-08-12T11:48:06.266Z,3650.63
2018-08-12T11:49:06.205Z,3605.63
2018-08-12T11:50:06.138Z,3650.63
2018-08-12T11:51:06.070Z,3605.63
2018-08-12T11:52:06.005Z,3605.63
2018-08-12T11:53:05.931Z,3571.88
2018-08-12T11:54:05.867Z,3678.75
2018-08-12T11:55:05.805Z,3729.38
2018-08-12T11:56:05.742Z,3650.63
2018-08-12T11:57:05.720Z,3633.75
2018-08-12T11:58:05.632Z,3639.38
2018-08-12T11:59:05.542Z,3633.75
2018-08-12T12:00:05.481Z,3718.13
2018-08-12T12:01:05.420Z,3645.00
2018-08-12T12:02:05.379Z,3594.38
2018-08-12T12:03:05.293Z,3600.00
2018-08-12T12:04:05.219Z,3577.50
2018-08-12T12:05:05.157Z,3521.25
2018-08-12T12:06:05.093Z,3577.50
2018-08-12T12:07:05.032Z,3611.25
2018-08-12T12:08:04.968Z,3622.50
2018-08-12T12:09:04.895Z,3729.38
2018-08-12T12:10:04.833Z,3757.50
2018-08-12T12:11:04.769Z,3729.38
2018-08-12T12:12:04.711Z,3684.38
2018-08-12T12:13:04.646Z,3611.25
2018-08-12T12:14:04.570Z,3577.50
2018-08-12T12:15:04.519Z,3594.38
2018-08-12T12:16:04.445Z,3487.50
2018-08-12T12:17:04.384Z,3605.63
2018-08-12T12:18:04.320Z,3600.00
2018-08-12T12:19:04.250Z,3678.75
2018-08-12T12:20:04.183Z,3695.63
2018-08-12T12:21:04.121Z,3656.25
2018-08-12T12:22:04.062Z,3650.63
2018-08-12T12:23:03.995Z,3628.13
2018-08-12T12:24:03.933Z,3661.88
2018-08-12T12:25:03.870Z,3583.13
2018-08-12T12:26:03.814Z,3543.75
2018-08-12T12:27:03.734Z,3532.50
2018-08-12T12:28:03.673Z,3543.75
2018-08-12T12:29:03.609Z,3521.25
2018-08-12T12:30:03.546Z,3577.50
2018-08-12T12:31:03.472Z,3459.38
2018-08-12T12:32:03.409Z,3510.00
2018-08-12T12:33:03.346Z,3633.75
2018-08-12T12:34:03.288Z,3532.50
2018-08-12T12:35:03.224Z,3481.88
2018-08-12T12:36:03.161Z,3510.00
2018-08-12T12:37:03.086Z,3549.38
2018-08-12T12:38:03.025Z,3594.38
2018-08-12T12:39:02.960Z,3555.00
2018-08-12T12:40:02.910Z,3622.50
2018-08-12T12:41:02.823Z,3583.13